sensor_id;sensor_type;location;lat;lon;timestamp;P1;durP1;ratioP1;P2;durP2;ratioP2
22289;SDS011;11313;50.116;8.424;2022-07-11T00:00:22;1.20;;;0.75;;
22289;SDS011;11313;50.116;8.424;2022-07-11T00:02:48;1.20;;;0.90;;
22289;SDS011;11313;50.116;8.424;2022-07-11T00:05:14;1.15;;;0.80;;
22289;SDS011;11313;50.116;8.424;2022-07-11T00:07:39;1.45;;;0.90;;
22289;SDS011;11313;50.116;8.424;2022-07-11T00:10:05;0.80;;;0.80;;
22289;SDS011;11313;50.116;8.424;2022-07-11T00:12:31;0.70;;;0.68;;
22289;SDS011;11313;50.116;8.424;2022-07-11T00:14:57;0.63;;;0.63;;
22289;SDS011;11313;50.116;8.424;2022-07-11T00:17:22;0.80;;;0.80;;
22289;SDS011;11313;50.116;8.424;2022-07-11T00:19:48;0.90;;;0.85;;
22289;SDS011;11313;50.116;8.424;2022-07-11T00:22:14;0.90;;;0.90;;
22289;SDS011;11313;50.116;8.424;2022-07-11T00:24:39;1.00;;;0.80;;
22289;SDS011;11313;50.116;8.424;2022-07-11T00:27:05;0.90;;;0.70;;
22289;SDS011;11313;50.116;8.424;2022-07-11T00:29:31;0.80;;;0.80;;
22289;SDS011;11313;50.116;8.424;2022-07-11T00:31:57;0.80;;;0.70;;
22289;SDS011;11313;50.116;8.424;2022-07-11T00:34:24;0.80;;;0.80;;
22289;SDS011;11313;50.116;8.424;2022-07-11T00:36:50;0.80;;;0.70;;
22289;SDS011;11313;50.116;8.424;2022-07-11T00:39:16;0.85;;;0.77;;
22289;SDS011;11313;50.116;8.424;2022-07-11T00:41:42;0.95;;;0.80;;
22289;SDS011;11313;50.116;8.424;2022-07-11T00:44:08;1.63;;;0.80;;
22289;SDS011;11313;50.116;8.424;2022-07-11T00:46:34;0.70;;;0.70;;
22289;SDS011;11313;50.116;8.424;2022-07-11T00:48:59;0.75;;;0.70;;
22289;SDS011;11313;50.116;8.424;2022-07-11T00:51:25;1.95;;;0.98;;
22289;SDS011;11313;50.116;8.424;2022-07-11T00:53:53;0.70;;;0.70;;
22289;SDS011;11313;50.116;8.424;2022-07-11T00:56:20;0.80;;;0.77;;
22289;SDS011;11313;50.116;8.424;2022-07-11T00:58:47;0.80;;;0.80;;
22289;SDS011;11313;50.116;8.424;2022-07-11T01:01:13;0.70;;;0.63;;
22289;SDS011;11313;50.116;8.424;2022-07-11T01:03:38;0.68;;;0.68;;
22289;SDS011;11313;50.116;8.424;2022-07-11T01:06:05;0.77;;;0.70;;
22289;SDS011;11313;50.116;8.424;2022-07-11T01:08:32;0.90;;;0.80;;
22289;SDS011;11313;50.116;8.424;2022-07-11T01:11:03;0.70;;;0.70;;
22289;SDS011;11313;50.116;8.424;2022-07-11T01:13:30;0.60;;;0.60;;
22289;SDS011;11313;50.116;8.424;2022-07-11T01:16:09;0.70;;;0.70;;
22289;SDS011;11313;50.116;8.424;2022-07-11T01:18:35;0.80;;;0.75;;
22289;SDS011;11313;50.116;8.424;2022-07-11T01:21:03;0.70;;;0.70;;
22289;SDS011;11313;50.116;8.424;2022-07-11T01:23:36;0.90;;;0.68;;
22289;SDS011;11313;50.116;8.424;2022-07-11T01:26:01;0.70;;;0.70;;
22289;SDS011;11313;50.116;8.424;2022-07-11T01:28:27;0.82;;;0.70;;
22289;SDS011;11313;50.116;8.424;2022-07-11T01:30:52;0.60;;;0.60;;
22289;SDS011;11313;50.116;8.424;2022-07-11T01:33:18;0.80;;;0.63;;
22289;SDS011;11313;50.116;8.424;2022-07-11T01:35:43;0.70;;;0.60;;
22289;SDS011;11313;50.116;8.424;2022-07-11T01:38:09;0.70;;;0.70;;
22289;SDS011;11313;50.116;8.424;2022-07-11T01:40:34;0.60;;;0.60;;
22289;SDS011;11313;50.116;8.424;2022-07-11T01:43:00;0.50;;;0.50;;
22289;SDS011;11313;50.116;8.424;2022-07-11T01:45:25;0.70;;;0.70;;
22289;SDS011;11313;50.116;8.424;2022-07-11T01:47:51;0.85;;;0.70;;
22289;SDS011;11313;50.116;8.424;2022-07-11T01:50:17;1.70;;;0.60;;
22289;SDS011;11313;50.116;8.424;2022-07-11T01:52:42;0.70;;;0.70;;
22289;SDS011;11313;50.116;8.424;2022-07-11T01:55:08;1.05;;;0.60;;
22289;SDS011;11313;50.116;8.424;2022-07-11T01:57:36;0.70;;;0.68;;
22289;SDS011;11313;50.116;8.424;2022-07-11T02:00:02;1.40;;;0.60;;
22289;SDS011;11313;50.116;8.424;2022-07-11T02:02:28;0.50;;;0.50;;
22289;SDS011;11313;50.116;8.424;2022-07-11T02:04:54;0.80;;;0.50;;
22289;SDS011;11313;50.116;8.424;2022-07-11T02:07:19;0.77;;;0.55;;
22289;SDS011;11313;50.116;8.424;2022-07-11T02:10:05;0.63;;;0.60;;
22289;SDS011;11313;50.116;8.424;2022-07-11T02:12:30;0.70;;;0.60;;
22289;SDS011;11313;50.116;8.424;2022-07-11T02:14:56;0.93;;;0.70;;
22289;SDS011;11313;50.116;8.424;2022-07-11T02:17:21;0.50;;;0.50;;
22289;SDS011;11313;50.116;8.424;2022-07-11T02:19:47;0.70;;;0.70;;
22289;SDS011;11313;50.116;8.424;2022-07-11T02:22:12;0.50;;;0.50;;
22289;SDS011;11313;50.116;8.424;2022-07-11T02:24:40;0.55;;;0.55;;
22289;SDS011;11313;50.116;8.424;2022-07-11T02:27:05;0.60;;;0.60;;
22289;SDS011;11313;50.116;8.424;2022-07-11T02:29:31;0.60;;;0.60;;
22289;SDS011;11313;50.116;8.424;2022-07-11T02:31:56;0.70;;;0.70;;
22289;SDS011;11313;50.116;8.424;2022-07-11T02:34:22;0.77;;;0.63;;
22289;SDS011;11313;50.116;8.424;2022-07-11T02:36:47;0.73;;;0.70;;
22289;SDS011;11313;50.116;8.424;2022-07-11T02:39:13;0.70;;;0.70;;
22289;SDS011;11313;50.116;8.424;2022-07-11T02:41:38;0.60;;;0.60;;
22289;SDS011;11313;50.116;8.424;2022-07-11T02:44:04;0.60;;;0.60;;
22289;SDS011;11313;50.116;8.424;2022-07-11T02:46:30;0.55;;;0.55;;
22289;SDS011;11313;50.116;8.424;2022-07-11T02:48:55;0.77;;;0.63;;
22289;SDS011;11313;50.116;8.424;2022-07-11T02:51:21;0.82;;;0.70;;
22289;SDS011;11313;50.116;8.424;2022-07-11T02:53:47;0.93;;;0.50;;
22289;SDS011;11313;50.116;8.424;2022-07-11T02:56:12;0.68;;;0.68;;
22289;SDS011;11313;50.116;8.424;2022-07-11T02:58:38;0.68;;;0.68;;
22289;SDS011;11313;50.116;8.424;2022-07-11T03:01:03;0.60;;;0.60;;
22289;SDS011;11313;50.116;8.424;2022-07-11T03:03:30;1.33;;;0.63;;
22289;SDS011;11313;50.116;8.424;2022-07-11T03:05:55;0.73;;;0.70;;
22289;SDS011;11313;50.116;8.424;2022-07-11T03:08:21;0.65;;;0.65;;
22289;SDS011;11313;50.116;8.424;2022-07-11T03:10:48;0.45;;;0.45;;
22289;SDS011;11313;50.116;8.424;2022-07-11T03:13:13;0.88;;;0.70;;
22289;SDS011;11313;50.116;8.424;2022-07-11T03:15:39;0.70;;;0.70;;
22289;SDS011;11313;50.116;8.424;2022-07-11T03:18:04;0.68;;;0.68;;
22289;SDS011;11313;50.116;8.424;2022-07-11T03:20:30;1.00;;;0.60;;
22289;SDS011;11313;50.116;8.424;2022-07-11T03:22:55;0.60;;;0.60;;
22289;SDS011;11313;50.116;8.424;2022-07-11T03:25:21;0.70;;;0.70;;
22289;SDS011;11313;50.116;8.424;2022-07-11T03:27:46;0.65;;;0.65;;
22289;SDS011;11313;50.116;8.424;2022-07-11T03:30:12;0.50;;;0.50;;
22289;SDS011;11313;50.116;8.424;2022-07-11T03:32:39;0.60;;;0.60;;
22289;SDS011;11313;50.116;8.424;2022-07-11T03:35:05;0.73;;;0.70;;
22289;SDS011;11313;50.116;8.424;2022-07-11T03:37:50;0.60;;;0.60;;
22289;SDS011;11313;50.116;8.424;2022-07-11T03:40:16;0.55;;;0.55;;
22289;SDS011;11313;50.116;8.424;2022-07-11T03:57:19;0.50;;;0.50;;
22289;SDS011;11313;50.116;8.424;2022-07-11T04:00:06;0.70;;;0.70;;
22289;SDS011;11313;50.116;8.424;2022-07-11T04:05:48;0.50;;;0.50;;
22289;SDS011;11313;50.116;8.424;2022-07-11T04:08:26;1.02;;;0.70;;
22289;SDS011;11313;50.116;8.424;2022-07-11T04:11:32;0.70;;;0.70;;
22289;SDS011;11313;50.116;8.424;2022-07-11T04:14:31;0.77;;;0.68;;
22289;SDS011;11313;50.116;8.424;2022-07-11T04:17:05;0.50;;;0.50;;
22289;SDS011;11313;50.116;8.424;2022-07-11T04:19:36;0.75;;;0.70;;
22289;SDS011;11313;50.116;8.424;2022-07-11T04:22:07;0.93;;;0.75;;
22289;SDS011;11313;50.116;8.424;2022-07-11T04:24:52;0.70;;;0.70;;
22289;SDS011;11313;50.116;8.424;2022-07-11T04:27:20;0.88;;;0.60;;
22289;SDS011;11313;50.116;8.424;2022-07-11T04:29:49;0.55;;;0.55;;
22289;SDS011;11313;50.116;8.424;2022-07-11T04:32:19;0.60;;;0.60;;
22289;SDS011;11313;50.116;8.424;2022-07-11T04:34:47;0.68;;;0.68;;
22289;SDS011;11313;50.116;8.424;2022-07-11T04:37:15;0.60;;;0.60;;
22289;SDS011;11313;50.116;8.424;2022-07-11T04:39:43;1.15;;;0.60;;
22289;SDS011;11313;50.116;8.424;2022-07-11T04:42:11;0.60;;;0.50;;
22289;SDS011;11313;50.116;8.424;2022-07-11T04:44:41;0.52;;;0.52;;
22289;SDS011;11313;50.116;8.424;2022-07-11T04:47:07;0.93;;;0.70;;
22289;SDS011;11313;50.116;8.424;2022-07-11T04:49:33;0.70;;;0.70;;
22289;SDS011;11313;50.116;8.424;2022-07-11T04:52:00;0.60;;;0.60;;
22289;SDS011;11313;50.116;8.424;2022-07-11T04:54:36;0.70;;;0.70;;
22289;SDS011;11313;50.116;8.424;2022-07-11T04:57:02;0.70;;;0.52;;
22289;SDS011;11313;50.116;8.424;2022-07-11T04:59:30;0.60;;;0.60;;
22289;SDS011;11313;50.116;8.424;2022-07-11T05:02:03;0.60;;;0.60;;
22289;SDS011;11313;50.116;8.424;2022-07-11T05:05:06;0.60;;;0.60;;
22289;SDS011;11313;50.116;8.424;2022-07-11T05:07:54;0.60;;;0.60;;
22289;SDS011;11313;50.116;8.424;2022-07-11T05:10:30;0.98;;;0.80;;
22289;SDS011;11313;50.116;8.424;2022-07-11T05:13:03;0.65;;;0.60;;
22289;SDS011;11313;50.116;8.424;2022-07-11T05:15:44;0.95;;;0.63;;
22289;SDS011;11313;50.116;8.424;2022-07-11T05:18:28;0.90;;;0.70;;
22289;SDS011;11313;50.116;8.424;2022-07-11T05:21:06;0.63;;;0.63;;
22289;SDS011;11313;50.116;8.424;2022-07-11T05:23:37;0.52;;;0.52;;
22289;SDS011;11313;50.116;8.424;2022-07-11T05:26:17;0.65;;;0.60;;
22289;SDS011;11313;50.116;8.424;2022-07-11T05:29:08;1.25;;;0.68;;
22289;SDS011;11313;50.116;8.424;2022-07-11T05:31:41;0.88;;;0.70;;
22289;SDS011;11313;50.116;8.424;2022-07-11T05:34:09;0.75;;;0.70;;
22289;SDS011;11313;50.116;8.424;2022-07-11T05:36:38;0.70;;;0.70;;
22289;SDS011;11313;50.116;8.424;2022-07-11T05:39:04;0.93;;;0.73;;
22289;SDS011;11313;50.116;8.424;2022-07-11T05:41:35;0.60;;;0.60;;
22289;SDS011;11313;50.116;8.424;2022-07-11T05:44:26;0.60;;;0.60;;
22289;SDS011;11313;50.116;8.424;2022-07-11T05:47:13;0.70;;;0.70;;
22289;SDS011;11313;50.116;8.424;2022-07-11T05:49:53;3.13;;;0.85;;
22289;SDS011;11313;50.116;8.424;2022-07-11T17:11:42;2.80;;;1.70;;
22289;SDS011;11313;50.116;8.424;2022-07-11T17:14:12;1.95;;;1.73;;
22289;SDS011;11313;50.116;8.424;2022-07-11T17:16:57;3.28;;;1.50;;
22289;SDS011;11313;50.116;8.424;2022-07-11T17:19:37;2.28;;;1.70;;
22289;SDS011;11313;50.116;8.424;2022-07-11T17:22:13;3.78;;;1.75;;
22289;SDS011;11313;50.116;8.424;2022-07-11T17:25:10;3.05;;;1.65;;
22289;SDS011;11313;50.116;8.424;2022-07-11T17:27:48;2.67;;;1.83;;
22289;SDS011;11313;50.116;8.424;2022-07-11T17:30:30;3.08;;;1.77;;
22289;SDS011;11313;50.116;8.424;2022-07-11T17:33:05;5.82;;;2.30;;
22289;SDS011;11313;50.116;8.424;2022-07-11T17:38:17;5.07;;;2.10;;
22289;SDS011;11313;50.116;8.424;2022-07-11T17:41:06;7.82;;;2.30;;
22289;SDS011;11313;50.116;8.424;2022-07-11T17:44:02;4.07;;;1.98;;
22289;SDS011;11313;50.116;8.424;2022-07-11T17:46:36;4.32;;;2.10;;
22289;SDS011;11313;50.116;8.424;2022-07-11T17:49:11;4.57;;;2.00;;
22289;SDS011;11313;50.116;8.424;2022-07-11T17:52:35;4.38;;;2.20;;
22289;SDS011;11313;50.116;8.424;2022-07-11T18:36:05;3.75;;;2.00;;
